createdAt,value
2023-04-17T00:01:22.693Z,11.58
2023-04-17T00:03:52.148Z,11.59
2023-04-17T00:06:19.260Z,11.58
2023-04-17T00:08:46.312Z,11.58
2023-04-17T00:11:13.196Z,11.57
2023-04-17T00:13:40.259Z,11.57
2023-04-17T00:16:10.112Z,11.55
2023-04-17T00:18:37.138Z,11.53
2023-04-17T00:21:04.092Z,11.50
2023-04-17T00:23:31.153Z,11.46
2023-04-17T00:25:58.195Z,11.42
2023-04-17T00:28:25.259Z,11.39
2023-04-17T00:30:52.347Z,11.37
2023-04-17T00:33:19.777Z,11.35
2023-04-17T00:35:47.329Z,11.33
2023-04-17T00:38:14.215Z,11.32
2023-04-17T00:40:41.632Z,11.31
2023-04-17T00:43:08.691Z,11.30
2023-04-17T00:45:35.577Z,11.29
2023-04-17T00:48:03.674Z,11.29
2023-04-17T00:50:31.108Z,11.28
2023-04-17T00:52:58.350Z,11.28
2023-04-17T00:55:26.042Z,11.27
2023-04-17T00:57:52.904Z,11.27
2023-04-17T01:00:19.748Z,11.26
2023-04-17T01:02:47.031Z,11.26
2023-04-17T01:05:14.216Z,11.26
2023-04-17T01:07:41.549Z,11.25
2023-04-17T01:10:09.148Z,11.24
2023-04-17T01:12:36.215Z,11.22
2023-04-17T01:15:03.281Z,11.21
2023-04-17T01:17:30.217Z,11.20
2023-04-17T01:19:57.645Z,11.19
2023-04-17T01:22:24.640Z,11.18
2023-04-17T01:24:54.024Z,11.17
2023-04-17T01:27:22.043Z,11.15
2023-04-17T01:29:49.158Z,11.11
2023-04-17T01:32:17.218Z,11.08
2023-04-17T01:34:44.285Z,11.05
2023-04-17T01:37:11.333Z,11.00
2023-04-17T01:39:38.297Z,10.96
2023-04-17T01:42:05.850Z,10.91
2023-04-17T01:44:32.919Z,10.88
2023-04-17T01:46:59.856Z,10.84
2023-04-17T01:49:26.935Z,10.81
2023-04-17T01:51:53.985Z,10.80
2023-04-17T01:54:21.828Z,10.78
2023-04-17T01:56:48.795Z,10.76
2023-04-17T01:59:15.756Z,10.77
2023-04-17T02:01:42.708Z,10.76
2023-04-17T02:04:09.937Z,10.75
2023-04-17T02:06:36.993Z,10.75
2023-04-17T02:09:04.029Z,10.75
2023-04-17T02:11:31.228Z,10.74
2023-04-17T02:13:58.246Z,10.74
2023-04-17T02:16:25.405Z,10.75
2023-04-17T02:18:52.468Z,10.75
2023-04-17T02:21:19.414Z,10.75
2023-04-17T02:23:46.387Z,10.76
2023-04-17T02:26:13.276Z,10.77
2023-04-17T02:28:42.791Z,10.77
2023-04-17T02:31:11.052Z,10.77
2023-04-17T02:33:38.572Z,10.75
2023-04-17T02:36:06.722Z,10.74
2023-04-17T02:38:37.909Z,10.73
2023-04-17T02:41:05.540Z,10.71
2023-04-17T02:43:32.707Z,10.68
2023-04-17T02:46:00.712Z,10.66
2023-04-17T02:48:27.648Z,10.67
2023-04-17T02:50:55.015Z,10.66
2023-04-17T02:53:22.235Z,10.65
2023-04-17T02:55:49.155Z,10.65
2023-04-17T02:58:17.530Z,10.66
2023-04-17T03:00:44.516Z,10.66
2023-04-17T03:03:15.073Z,10.65
2023-04-17T03:05:42.278Z,10.65
2023-04-17T03:08:09.505Z,10.66
2023-04-17T03:10:44.843Z,10.66
2023-04-17T03:13:11.855Z,10.66
2023-04-17T03:15:38.664Z,10.66
2023-04-17T03:18:05.691Z,10.68
2023-04-17T03:20:32.668Z,10.67
2023-04-17T03:22:59.558Z,10.68
2023-04-17T03:25:26.501Z,10.67
2023-04-17T03:27:53.685Z,10.68
2023-04-17T03:30:22.535Z,10.69
2023-04-17T03:32:50.893Z,10.69
2023-04-17T03:35:17.935Z,10.70
2023-04-17T03:37:45.032Z,10.69
2023-04-17T03:40:12.665Z,10.69
2023-04-17T03:42:39.972Z,10.70
2023-04-17T03:45:07.270Z,10.69
2023-04-17T03:47:34.357Z,10.68
2023-04-17T03:50:01.487Z,10.68
2023-04-17T03:52:31.704Z,10.68
2023-04-17T03:54:58.741Z,10.67
2023-04-17T03:57:25.887Z,10.67
2023-04-17T03:59:52.996Z,10.67
2023-04-17T04:02:20.183Z,10.68
2023-04-17T04:04:49.886Z,10.69
2023-04-17T04:07:16.957Z,10.68
2023-04-17T04:09:44.851Z,10.69
2023-04-17T04:12:11.931Z,10.70
2023-04-17T04:14:42.070Z,10.71
2023-04-17T04:17:09.979Z,10.74
2023-04-17T04:19:37.885Z,10.77
2023-04-17T04:22:06.914Z,10.78
2023-04-17T04:24:42.282Z,10.82
2023-04-17T04:27:12.647Z,10.85
2023-04-17T04:29:40.096Z,10.90
2023-04-17T04:32:13.054Z,10.93
2023-04-17T04:34:44.165Z,10.97
2023-04-17T04:37:14.987Z,11.02
2023-04-17T04:39:43.847Z,11.07
2023-04-17T04:42:21.265Z,11.10
2023-04-17T04:45:00.603Z,11.13
2023-04-17T04:47:28.998Z,11.17
2023-04-17T04:49:56.341Z,11.20
2023-04-17T04:52:23.475Z,11.24
2023-04-17T04:54:52.805Z,11.28
2023-04-17T04:57:19.835Z,11.32
2023-04-17T04:59:47.167Z,11.36
2023-04-17T05:02:36.407Z,11.41
2023-04-17T05:05:04.882Z,11.44
2023-04-17T05:07:32.814Z,11.47
2023-04-17T05:10:00.310Z,11.51
2023-04-17T05:12:28.173Z,11.55
2023-04-17T05:14:55.153Z,11.57
2023-04-17T05:17:22.535Z,11.60
2023-04-17T05:19:50.258Z,11.64
2023-04-17T05:22:18.557Z,11.67
2023-04-17T05:24:58.079Z,11.70
2023-04-17T05:27:26.803Z,11.72
2023-04-17T05:29:55.989Z,11.75
2023-04-17T05:32:23.152Z,11.78
2023-04-17T05:35:00.138Z,11.80
2023-04-17T05:37:27.870Z,11.82
2023-04-17T05:39:55.459Z,11.84
2023-04-17T05:42:22.491Z,11.84
2023-04-17T05:44:49.639Z,11.84
2023-04-17T05:47:16.943Z,11.88
2023-04-17T05:49:44.264Z,11.91
2023-04-17T05:52:11.522Z,11.95
2023-04-17T05:54:41.747Z,12.02
2023-04-17T05:57:09.010Z,12.08
2023-04-17T05:59:36.060Z,12.15
2023-04-17T06:02:04.469Z,12.21
2023-04-17T06:04:33.478Z,12.28
2023-04-17T06:07:02.470Z,12.31
2023-04-17T06:09:29.894Z,12.34
2023-04-17T06:11:56.846Z,12.37
2023-04-17T06:14:24.204Z,12.41
2023-04-17T06:16:51.477Z,12.44
2023-04-17T06:19:18.724Z,12.49
2023-04-17T06:21:45.883Z,12.54
2023-04-17T06:24:12.959Z,12.57
2023-04-17T06:26:44.593Z,12.62
2023-04-17T06:29:13.457Z,12.67
2023-04-17T06:31:40.744Z,12.73
2023-04-17T06:34:07.905Z,12.80
2023-04-17T06:36:38.352Z,12.85
2023-04-17T06:39:05.226Z,12.91
2023-04-17T06:41:32.586Z,12.95
2023-04-17T06:44:00.456Z,13.01
2023-04-17T06:46:40.130Z,13.08
2023-04-17T06:49:07.165Z,13.12
2023-04-17T06:51:34.057Z,13.16
2023-04-17T06:54:00.945Z,13.21
2023-04-17T06:56:27.890Z,13.24
2023-04-17T06:58:54.814Z,13.26
2023-04-17T07:01:21.817Z,13.30
2023-04-17T07:03:49.135Z,13.34
2023-04-17T07:06:16.680Z,13.38
2023-04-17T07:08:43.733Z,13.42
2023-04-17T07:11:10.786Z,13.45
2023-04-17T07:13:38.144Z,13.49
2023-04-17T07:16:05.716Z,13.57
2023-04-17T07:18:32.757Z,13.66
2023-04-17T07:21:00.232Z,13.74
2023-04-17T07:23:27.283Z,13.85
2023-04-17T07:25:54.387Z,13.98
2023-04-17T07:28:21.385Z,14.13
2023-04-17T07:30:48.337Z,14.24
2023-04-17T07:33:15.604Z,14.39
2023-04-17T07:35:42.683Z,14.53
2023-04-17T07:38:09.697Z,14.66
2023-04-17T07:40:36.897Z,14.78
2023-04-17T07:43:04.019Z,14.87
2023-04-17T07:45:31.381Z,14.94
2023-04-17T07:47:58.481Z,15.03
2023-04-17T07:50:26.193Z,15.14
2023-04-17T07:52:53.453Z,15.23
2023-04-17T07:55:20.504Z,15.31
2023-04-17T07:57:49.644Z,15.40
2023-04-17T08:00:17.009Z,15.43
2023-04-17T08:02:44.061Z,15.48
2023-04-17T08:05:11.721Z,15.54
2023-04-17T08:07:39.669Z,15.57
2023-04-17T08:10:06.745Z,15.57
2023-04-17T08:12:33.599Z,15.60
2023-04-17T08:15:00.532Z,15.59
2023-04-17T08:17:29.582Z,15.61
2023-04-17T08:20:01.620Z,15.61
2023-04-17T08:22:28.640Z,15.61
2023-04-17T08:24:59.210Z,15.64
2023-04-17T08:27:26.340Z,15.69
2023-04-17T08:29:53.892Z,15.76
2023-04-17T08:32:21.382Z,15.85
2023-04-17T08:34:48.499Z,15.92
2023-04-17T08:37:15.456Z,15.96
2023-04-17T08:39:42.400Z,15.99
2023-04-17T08:42:13.339Z,16.01
2023-04-17T08:44:45.107Z,15.99
2023-04-17T08:47:12.586Z,16.00
2023-04-17T08:49:42.900Z,15.99
2023-04-17T08:52:10.393Z,16.01
2023-04-17T08:54:38.436Z,16.03
2023-04-17T08:57:05.704Z,16.08
2023-04-17T08:59:33.152Z,16.21
2023-04-17T09:02:07.092Z,16.40
2023-04-17T09:04:35.263Z,16.65
2023-04-17T09:07:02.912Z,16.87
2023-04-17T09:09:56.498Z,17.10
2023-04-17T09:12:24.888Z,17.41
2023-04-17T09:14:52.313Z,17.63
2023-04-17T09:17:19.894Z,17.78
2023-04-17T09:20:13.341Z,17.87
2023-04-17T09:22:40.750Z,17.92
2023-04-17T09:25:17.513Z,17.98
2023-04-17T09:27:45.238Z,17.97
2023-04-17T09:30:13.218Z,17.94
2023-04-17T09:32:40.324Z,17.94
2023-04-17T09:35:07.733Z,17.91
2023-04-17T09:37:48.397Z,17.88
2023-04-17T09:40:15.555Z,17.85
2023-04-17T09:43:01.870Z,17.83
2023-04-17T09:45:34.969Z,17.79
2023-04-17T09:48:09.230Z,17.73
2023-04-17T09:50:37.390Z,17.65
2023-04-17T09:53:06.751Z,17.56
2023-04-17T09:55:35.971Z,17.51
2023-04-17T09:58:04.109Z,17.48
2023-04-17T10:00:31.191Z,17.45
2023-04-17T10:02:58.933Z,17.41
2023-04-17T10:05:28.376Z,17.34
2023-04-17T10:07:56.020Z,17.29
2023-04-17T10:10:31.684Z,17.27
2023-04-17T10:13:02.918Z,17.27
2023-04-17T10:15:30.159Z,17.27
2023-04-17T10:18:16.900Z,17.27
2023-04-17T10:20:44.352Z,17.30
2023-04-17T10:23:37.693Z,17.30
2023-04-17T10:26:25.982Z,17.31
2023-04-17T10:28:53.698Z,17.36
2023-04-17T10:31:23.027Z,17.40
2023-04-17T10:33:52.032Z,17.44
2023-04-17T10:36:37.460Z,17.46
2023-04-17T10:39:14.615Z,17.50
2023-04-17T10:42:00.169Z,17.52
2023-04-17T10:44:27.139Z,17.52
2023-04-17T10:46:54.004Z,17.53
2023-04-17T10:49:21.216Z,17.54
2023-04-17T10:51:48.500Z,17.58
2023-04-17T10:54:15.918Z,17.62
2023-04-17T10:56:47.649Z,17.69
2023-04-17T10:59:16.340Z,17.75
2023-04-17T11:01:43.581Z,17.81
2023-04-17T11:04:18.245Z,17.86
2023-04-17T11:06:45.105Z,17.94
2023-04-17T11:09:12.612Z,18.06
2023-04-17T11:11:44.730Z,18.23
2023-04-17T11:14:16.480Z,18.46
2023-04-17T11:16:44.899Z,18.85
2023-04-17T11:19:13.170Z,19.30
2023-04-17T11:21:44.006Z,19.67
2023-04-17T11:24:11.652Z,19.86
2023-04-17T11:26:42.896Z,19.95
2023-04-17T11:29:23.049Z,19.99
2023-04-17T11:31:51.722Z,20.00
2023-04-17T11:34:19.203Z,20.03
2023-04-17T11:36:58.981Z,20.15
2023-04-17T11:39:28.177Z,20.28
2023-04-17T11:41:56.576Z,20.41
2023-04-17T11:44:24.021Z,20.51
2023-04-17T11:46:55.466Z,20.63
2023-04-17T11:49:29.599Z,20.69
2023-04-17T11:51:58.644Z,20.82
2023-04-17T11:54:26.269Z,21.04
2023-04-17T11:57:07.279Z,21.10
2023-04-17T11:59:37.924Z,21.12
2023-04-17T12:02:06.573Z,21.25
2023-04-17T12:04:34.615Z,21.45
2023-04-17T12:07:02.896Z,21.57
2023-04-17T12:09:33.250Z,21.79
2023-04-17T12:12:03.934Z,22.07
2023-04-17T12:14:31.192Z,22.66
2023-04-17T12:16:58.389Z,23.37
2023-04-17T12:19:28.702Z,23.74
2023-04-17T12:21:56.024Z,23.76
2023-04-17T12:24:24.410Z,23.89
2023-04-17T12:26:51.942Z,24.09
2023-04-17T12:29:21.977Z,24.01
2023-04-17T12:31:51.303Z,23.92
2023-04-17T12:34:18.260Z,23.66
2023-04-17T12:36:45.734Z,23.48
2023-04-17T12:39:13.157Z,23.59
2023-04-17T12:41:40.274Z,23.76
2023-04-17T12:44:07.180Z,23.43
2023-04-17T12:46:34.034Z,23.02
2023-04-17T12:49:00.845Z,22.67
2023-04-17T12:51:27.989Z,22.39
2023-04-17T12:53:55.228Z,22.32
2023-04-17T12:56:22.357Z,22.52
2023-04-17T12:58:49.457Z,22.84
2023-04-17T13:01:16.388Z,23.06
2023-04-17T13:03:43.697Z,23.27
2023-04-17T13:06:10.985Z,23.40
2023-04-17T13:08:37.824Z,23.39
2023-04-17T13:11:04.755Z,23.23
2023-04-17T13:13:31.588Z,23.11
2023-04-17T13:15:58.460Z,23.11
2023-04-17T13:18:25.829Z,23.34
2023-04-17T13:20:52.632Z,23.73
2023-04-17T13:23:19.692Z,23.97
2023-04-17T13:25:46.786Z,23.75
2023-04-17T13:28:13.604Z,23.27
2023-04-17T13:30:40.601Z,22.97
2023-04-17T13:33:07.855Z,22.57
2023-04-17T13:35:34.905Z,22.31
2023-04-17T13:38:02.658Z,22.21
2023-04-17T13:40:30.669Z,22.15
2023-04-17T13:42:58.064Z,22.28
2023-04-17T13:45:25.076Z,22.25
2023-04-17T13:47:52.139Z,22.37
2023-04-17T13:50:19.176Z,22.35
2023-04-17T13:52:46.258Z,22.12
2023-04-17T13:55:15.597Z,22.01
2023-04-17T13:57:42.548Z,22.00
2023-04-17T14:00:10.361Z,22.01
2023-04-17T14:02:37.815Z,21.99
2023-04-17T14:05:05.497Z,21.99
2023-04-17T14:07:32.541Z,22.03
2023-04-17T14:09:59.593Z,22.09
2023-04-17T14:12:26.685Z,22.07
2023-04-17T14:14:53.819Z,22.02
2023-04-17T14:17:20.880Z,21.98
2023-04-17T14:19:47.863Z,21.81
2023-04-17T14:22:14.790Z,21.67
2023-04-17T14:24:41.779Z,21.58
2023-04-17T14:27:08.968Z,21.46
2023-04-17T14:29:35.971Z,21.31
2023-04-17T14:32:02.773Z,21.19
2023-04-17T14:34:29.671Z,21.14
2023-04-17T14:36:58.271Z,21.08
2023-04-17T14:39:25.189Z,20.91
2023-04-17T14:41:52.178Z,20.71
2023-04-17T14:44:19.868Z,20.58
2023-04-17T14:46:47.177Z,20.55
2023-04-17T14:49:14.342Z,20.50
2023-04-17T14:51:41.409Z,20.44
2023-04-17T14:54:08.620Z,20.47
2023-04-17T14:56:35.651Z,20.59
2023-04-17T14:59:02.973Z,20.83
2023-04-17T15:01:29.982Z,21.19
2023-04-17T15:03:57.214Z,21.56
2023-04-17T15:06:24.286Z,21.78
2023-04-17T15:08:51.198Z,21.84
2023-04-17T15:11:18.487Z,21.88
2023-04-17T15:13:45.343Z,21.88
2023-04-17T15:16:12.363Z,21.87
2023-04-17T15:18:39.484Z,21.80
2023-04-17T15:21:06.691Z,21.76
2023-04-17T15:23:34.221Z,21.68
2023-04-17T15:26:01.178Z,21.50
2023-04-17T15:28:28.004Z,21.31
2023-04-17T15:30:55.574Z,21.12
2023-04-17T15:33:22.416Z,20.90
2023-04-17T15:35:53.682Z,20.66
2023-04-17T15:38:20.801Z,20.37
2023-04-17T15:40:47.711Z,20.07
2023-04-17T15:43:14.801Z,19.79
2023-04-17T15:45:41.790Z,19.54
2023-04-17T15:48:09.661Z,19.33
2023-04-17T15:50:37.172Z,19.17
2023-04-17T15:53:03.999Z,19.04
2023-04-17T15:55:32.562Z,18.90
2023-04-17T15:57:59.384Z,18.78
2023-04-17T16:00:26.378Z,18.70
2023-04-17T16:02:53.374Z,18.60
2023-04-17T16:05:20.449Z,18.48
2023-04-17T16:07:47.827Z,18.39
2023-04-17T16:10:15.173Z,18.28
2023-04-17T16:12:42.855Z,18.17
2023-04-17T16:15:18.476Z,18.09
2023-04-17T16:17:45.717Z,18.01
2023-04-17T16:20:12.868Z,17.91
2023-04-17T16:22:40.297Z,17.82
2023-04-17T16:25:07.530Z,17.74
2023-04-17T16:27:34.431Z,17.65
2023-04-17T16:30:02.511Z,17.58
2023-04-17T16:32:31.101Z,17.52
2023-04-17T16:34:58.316Z,17.42
2023-04-17T16:37:25.234Z,17.33
2023-04-17T16:39:52.135Z,17.25
2023-04-17T16:42:19.111Z,17.20
2023-04-17T16:44:46.216Z,17.12
2023-04-17T16:47:14.530Z,17.05
2023-04-17T16:49:42.169Z,17.00
2023-04-17T16:52:09.410Z,16.95
2023-04-17T16:54:36.198Z,16.90
2023-04-17T16:57:04.165Z,16.81
2023-04-17T16:59:31.332Z,16.70
2023-04-17T17:02:00.060Z,16.56
2023-04-17T17:04:28.414Z,16.44
2023-04-17T17:06:55.405Z,16.34
2023-04-17T17:09:22.388Z,16.23
2023-04-17T17:11:49.294Z,16.11
2023-04-17T17:14:16.304Z,16.03
2023-04-17T17:16:43.403Z,15.94
2023-04-17T17:19:10.508Z,15.86
2023-04-17T17:21:37.790Z,15.77
2023-04-17T17:24:04.874Z,15.70
2023-04-17T17:26:31.805Z,15.61
2023-04-17T17:28:58.686Z,15.51
2023-04-17T17:31:25.637Z,15.43
2023-04-17T17:33:54.513Z,15.35
2023-04-17T17:36:21.429Z,15.29
2023-04-17T17:38:54.801Z,15.20
2023-04-17T17:41:22.445Z,15.11
2023-04-17T17:43:49.269Z,15.04
2023-04-17T17:46:16.300Z,14.96
2023-04-17T17:48:43.330Z,14.87
2023-04-17T17:51:10.264Z,14.78
2023-04-17T17:53:37.025Z,14.68
2023-04-17T17:56:04.073Z,14.61
2023-04-17T17:58:30.960Z,14.54
2023-04-17T18:00:57.924Z,14.47
2023-04-17T18:03:24.977Z,14.40
2023-04-17T18:05:52.177Z,14.33
2023-04-17T18:08:19.217Z,14.24
2023-04-17T18:10:46.137Z,14.17
2023-04-17T18:13:13.197Z,14.11
2023-04-17T18:15:40.125Z,14.04
2023-04-17T18:18:07.445Z,13.97
2023-04-17T18:20:38.944Z,13.90
2023-04-17T18:23:06.108Z,13.84
2023-04-17T18:25:35.151Z,13.77
2023-04-17T18:28:03.188Z,13.72
2023-04-17T18:30:30.242Z,13.67
2023-04-17T18:32:57.453Z,13.61
2023-04-17T18:35:24.985Z,13.56
2023-04-17T18:37:52.650Z,13.49
2023-04-17T18:40:19.510Z,13.42
2023-04-17T18:42:47.834Z,13.35
2023-04-17T18:45:15.382Z,13.27
2023-04-17T18:47:45.212Z,13.19
2023-04-17T18:50:12.304Z,13.14
2023-04-17T18:52:46.217Z,13.11
2023-04-17T18:55:17.218Z,13.08
2023-04-17T18:57:44.108Z,13.04
2023-04-17T19:00:11.636Z,12.99
2023-04-17T19:02:40.121Z,12.96
2023-04-17T19:05:07.433Z,12.93
2023-04-17T19:07:34.360Z,12.91
2023-04-17T19:10:01.295Z,12.89
2023-04-17T19:12:30.093Z,12.81
2023-04-17T19:14:57.139Z,12.72
2023-04-17T19:17:25.077Z,12.65
2023-04-17T19:19:52.009Z,12.57
2023-04-17T19:22:19.473Z,12.51
2023-04-17T19:24:49.348Z,12.47
2023-04-17T19:27:16.328Z,12.42
2023-04-17T19:29:43.373Z,12.37
2023-04-17T19:32:10.817Z,12.31
2023-04-17T19:34:37.967Z,12.28
2023-04-17T19:37:05.335Z,12.24
2023-04-17T19:39:32.278Z,12.19
2023-04-17T19:41:59.256Z,12.13
2023-04-17T19:44:27.956Z,12.06
2023-04-17T19:46:56.222Z,12.00
2023-04-17T19:49:23.250Z,11.95
2023-04-17T19:51:50.203Z,11.91
2023-04-17T19:54:17.359Z,11.91
2023-04-17T19:56:44.513Z,11.92
2023-04-17T19:59:13.140Z,11.95
2023-04-17T20:01:42.919Z,11.98
2023-04-17T20:04:10.980Z,11.99
2023-04-17T20:06:39.275Z,11.98
2023-04-17T20:09:06.200Z,11.97
2023-04-17T20:11:33.302Z,11.96
2023-04-17T20:14:00.330Z,11.93
2023-04-17T20:16:27.465Z,11.90
2023-04-17T20:18:56.093Z,11.87
2023-04-17T20:21:23.666Z,11.86
2023-04-17T20:23:50.795Z,11.86
2023-04-17T20:26:18.078Z,11.88
2023-04-17T20:28:45.434Z,11.91
2023-04-17T20:31:12.628Z,11.95
2023-04-17T20:33:39.767Z,11.97
2023-04-17T20:36:06.677Z,11.97
2023-04-17T20:38:33.866Z,11.97
2023-04-17T20:41:00.893Z,11.97
2023-04-17T20:43:27.835Z,12.00
2023-04-17T20:45:55.139Z,12.01
2023-04-17T20:48:22.266Z,12.05
2023-04-17T20:50:49.308Z,12.08
2023-04-17T20:53:16.256Z,12.10
2023-04-17T20:55:43.616Z,12.12
2023-04-17T20:58:10.768Z,12.14
2023-04-17T21:00:44.416Z,12.15
2023-04-17T21:03:14.580Z,12.17
2023-04-17T21:05:41.654Z,12.18
2023-04-17T21:08:08.601Z,12.19
2023-04-17T21:10:35.655Z,12.20
2023-04-17T21:13:02.707Z,12.20
2023-04-17T21:15:30.594Z,12.22
2023-04-17T21:17:57.608Z,12.22
2023-04-17T21:20:24.889Z,12.22
2023-04-17T21:22:51.777Z,12.21
2023-04-17T21:25:18.894Z,12.20
2023-04-17T21:27:46.007Z,12.20
2023-04-17T21:30:13.069Z,12.20
2023-04-17T21:32:40.373Z,12.20
2023-04-17T21:35:07.765Z,12.21
2023-04-17T21:37:34.674Z,12.21
2023-04-17T21:40:01.866Z,12.22
2023-04-17T21:42:29.005Z,12.25
2023-04-17T21:44:56.057Z,12.26
2023-04-17T21:47:23.126Z,12.27
2023-04-17T21:49:50.052Z,12.28
2023-04-17T21:52:17.140Z,12.29
2023-04-17T21:54:44.268Z,12.29
2023-04-17T21:57:11.260Z,12.29
2023-04-17T21:59:38.210Z,12.29
2023-04-17T22:02:05.667Z,12.29
2023-04-17T22:04:32.715Z,12.27
2023-04-17T22:07:00.362Z,12.28
2023-04-17T22:09:29.118Z,12.29
2023-04-17T22:11:56.624Z,12.30
2023-04-17T22:14:23.568Z,12.30
2023-04-17T22:16:50.669Z,12.28
2023-04-17T22:19:17.780Z,12.27
2023-04-17T22:21:44.600Z,12.25
2023-04-17T22:24:12.024Z,12.22
2023-04-17T22:26:39.323Z,12.19
2023-04-17T22:29:06.218Z,12.15
2023-04-17T22:31:33.509Z,12.11
2023-04-17T22:34:00.589Z,12.08
2023-04-17T22:36:27.898Z,12.06
2023-04-17T22:38:54.707Z,12.04
2023-04-17T22:41:21.750Z,12.03
2023-04-17T22:43:49.062Z,12.01
2023-04-17T22:46:16.098Z,11.99
2023-04-17T22:48:46.576Z,11.98
2023-04-17T22:51:14.672Z,11.96
2023-04-17T22:53:42.261Z,11.94
2023-04-17T22:56:11.330Z,11.91
2023-04-17T22:58:38.279Z,11.89
2023-04-17T23:01:05.465Z,11.84
2023-04-17T23:03:33.740Z,11.78
2023-04-17T23:06:00.986Z,11.72
2023-04-17T23:08:29.312Z,11.66
2023-04-17T23:10:59.830Z,11.58
2023-04-17T23:13:27.083Z,11.49
2023-04-17T23:15:54.754Z,11.39
2023-04-17T23:18:21.842Z,11.28
2023-04-17T23:20:49.426Z,11.20
2023-04-17T23:23:17.971Z,11.16
2023-04-17T23:25:44.880Z,11.10
2023-04-17T23:28:11.842Z,11.01
2023-04-17T23:30:38.972Z,10.97
2023-04-17T23:33:06.293Z,10.91
2023-04-17T23:35:33.140Z,10.85
2023-04-17T23:38:00.201Z,10.81
2023-04-17T23:40:27.592Z,10.79
2023-04-17T23:42:54.650Z,10.79
2023-04-17T23:45:21.743Z,10.78
2023-04-17T23:47:48.897Z,10.77
2023-04-17T23:50:15.916Z,10.75
2023-04-17T23:52:42.864Z,10.73
2023-04-17T23:55:10.019Z,10.68
2023-04-17T23:57:38.139Z,10.65
